< < Back
Terminal Aerodrome Forecast


Current Version              Previous Versions:   1  2  3  4  5  6  7  8  9  

Terminal Aerodrome Forecast

550
FTUS42 KJAX 031120
TAFGNV
TAF
KGNV 031120Z 0312/0412 23003KT P6SM BKN150
     FM031400 26006KT P6SM FEW035 BKN250
     FM031900 26006KT P6SM VCTS SCT050CB
     FM032300 24004KT P6SM FEW050 BKN250=



Latest METAR

496
SAUS70 KWBC 041300 RRD
MTRGNV
METAR KGNV 041253Z 16004KT 10SM CLR 26/22 A3012 RMK AO2 SLP197 T02610217
$


USA.gov is the U.S. government's official web portal to all federal, state and local government web resources and services.